createdAt,value
2018-01-17T00:00:39.066Z,14.50
2018-01-17T00:01:39.095Z,16.70
2018-01-17T00:02:39.124Z,14.50
2018-01-17T00:03:39.234Z,14.10
2018-01-17T00:04:39.185Z,16.00
2018-01-17T00:05:39.214Z,16.00
2018-01-17T00:06:39.250Z,16.80
2018-01-17T00:07:39.274Z,17.50
2018-01-17T00:08:39.300Z,18.90
2018-01-17T00:09:39.330Z,16.70
2018-01-17T00:10:39.361Z,18.20
2018-01-17T00:11:39.392Z,19.60
2018-01-17T00:12:39.474Z,15.10
2018-01-17T00:13:39.463Z,15.30
2018-01-17T00:14:39.476Z,14.00
2018-01-17T00:15:39.506Z,18.30
2018-01-17T00:16:39.550Z,16.80
2018-01-17T00:17:39.566Z,16.20
2018-01-17T00:18:39.594Z,17.30
2018-01-17T00:19:39.627Z,17.80
2018-01-17T00:20:39.711Z,20.60
2018-01-17T00:21:39.685Z,19.30
2018-01-17T00:22:39.713Z,23.20
2018-01-17T00:23:39.741Z,18.00
2018-01-17T00:24:39.769Z,20.00
2018-01-17T00:25:39.799Z,19.80
2018-01-17T00:26:39.830Z,22.00
2018-01-17T00:27:39.860Z,19.80
2018-01-17T00:28:39.888Z,19.90
2018-01-17T00:29:39.917Z,16.20
2018-01-17T00:30:39.947Z,18.80
2018-01-17T00:31:39.978Z,19.40
2018-01-17T00:32:40.007Z,20.20
2018-01-17T00:33:40.037Z,20.40
2018-01-17T00:34:40.068Z,20.60
2018-01-17T00:35:40.099Z,21.60
2018-01-17T00:36:40.123Z,24.50
2018-01-17T00:37:40.154Z,21.80
2018-01-17T00:38:40.180Z,19.80
2018-01-17T00:39:40.279Z,24.70
2018-01-17T00:40:40.241Z,24.00
2018-01-17T00:41:40.272Z,27.50
2018-01-17T00:42:40.301Z,22.00
2018-01-17T00:43:40.329Z,20.60
2018-01-17T00:44:40.558Z,16.50
2018-01-17T00:45:40.388Z,13.50
2018-01-17T00:46:40.418Z,17.30
2018-01-17T00:47:40.447Z,16.60
2018-01-17T00:48:40.475Z,12.20
2018-01-17T00:49:40.509Z,13.20
2018-01-17T00:50:40.535Z,14.20
2018-01-17T00:51:40.565Z,13.90
2018-01-17T00:52:40.593Z,12.70
2018-01-17T00:53:40.622Z,11.80
2018-01-17T00:54:40.652Z,12.30
2018-01-17T00:55:40.683Z,11.60
2018-01-17T00:56:40.754Z,12.50
2018-01-17T00:57:40.741Z,12.20
2018-01-17T00:58:40.770Z,11.60
2018-01-17T00:59:40.799Z,11.90
2018-01-17T01:00:40.828Z,13.20
2018-01-17T01:01:40.861Z,15.80
2018-01-17T01:02:40.893Z,11.90
2018-01-17T01:03:40.922Z,11.00
2018-01-17T01:04:40.945Z,12.90
2018-01-17T01:05:40.975Z,13.20
2018-01-17T01:06:41.026Z,11.90
2018-01-17T01:07:41.036Z,15.00
2018-01-17T01:08:41.065Z,14.40
2018-01-17T01:09:41.091Z,14.20
2018-01-17T01:10:41.122Z,13.60
2018-01-17T01:11:41.152Z,15.10
2018-01-17T01:12:41.183Z,15.50
2018-01-17T01:13:41.214Z,12.70
2018-01-17T01:14:41.242Z,12.30
2018-01-17T01:15:41.273Z,12.20
2018-01-17T01:16:41.298Z,14.90
2018-01-17T01:17:41.332Z,11.50
2018-01-17T01:18:41.358Z,15.40
2018-01-17T01:19:41.388Z,13.70
2018-01-17T01:20:41.415Z,9.70
2018-01-17T01:21:41.445Z,12.70
2018-01-17T01:22:41.475Z,11.60
2018-01-17T01:23:41.505Z,10.20
2018-01-17T01:24:41.534Z,11.60
2018-01-17T01:25:41.568Z,12.90
2018-01-17T01:26:41.595Z,13.10
2018-01-17T01:27:41.623Z,10.60
2018-01-17T01:28:41.648Z,14.60
2018-01-17T01:29:41.678Z,10.90
2018-01-17T01:30:41.714Z,13.90
2018-01-17T01:31:41.749Z,13.00
2018-01-17T01:32:41.796Z,13.00
2018-01-17T01:33:41.796Z,14.50
2018-01-17T01:34:41.825Z,12.20
2018-01-17T01:35:41.854Z,12.60
2018-01-17T01:36:41.885Z,14.30
2018-01-17T01:37:41.915Z,14.80
2018-01-17T01:38:41.944Z,14.70
2018-01-17T01:39:41.975Z,14.00
2018-01-17T01:40:42.002Z,13.30
2018-01-17T01:41:42.030Z,11.90
2018-01-17T01:42:42.062Z,13.50
2018-01-17T01:43:42.090Z,12.10
2018-01-17T01:44:42.116Z,13.50
2018-01-17T01:45:42.145Z,13.00
2018-01-17T01:46:42.177Z,12.80
2018-01-17T01:47:42.206Z,12.40
2018-01-17T01:48:42.237Z,12.00
2018-01-17T01:49:42.366Z,14.00
2018-01-17T01:50:42.292Z,12.10
2018-01-17T01:51:42.323Z,15.20
2018-01-17T01:52:42.348Z,12.80
2018-01-17T01:53:42.379Z,13.30
2018-01-17T01:54:42.409Z,14.20
2018-01-17T01:55:42.439Z,14.30
2018-01-17T01:56:42.472Z,11.30
2018-01-17T01:57:42.501Z,14.40
2018-01-17T01:58:42.527Z,12.20
2018-01-17T01:59:42.560Z,11.70
2018-01-17T02:00:42.604Z,12.60
2018-01-17T02:01:42.615Z,12.00
2018-01-17T02:02:42.640Z,14.80
2018-01-17T02:03:42.671Z,13.30
2018-01-17T02:04:42.700Z,14.70
2018-01-17T02:05:42.729Z,14.00
2018-01-17T02:06:42.761Z,13.50
2018-01-17T02:07:42.809Z,12.50
2018-01-17T02:08:42.818Z,12.20
2018-01-17T02:09:42.849Z,10.60
2018-01-17T02:10:42.879Z,11.80
2018-01-17T02:11:42.904Z,11.90
2018-01-17T02:12:42.939Z,12.10
2018-01-17T02:13:42.961Z,13.70
2018-01-17T02:14:42.994Z,11.80
2018-01-17T02:15:43.022Z,13.30
2018-01-17T02:16:43.049Z,11.60
2018-01-17T02:17:43.079Z,14.00
2018-01-17T02:18:43.109Z,14.10
2018-01-17T02:19:43.140Z,13.60
2018-01-17T02:20:43.171Z,11.90
2018-01-17T02:21:43.196Z,13.90
2018-01-17T02:22:43.228Z,11.30
2018-01-17T02:23:43.254Z,10.90
2018-01-17T02:24:43.284Z,12.40
2018-01-17T02:25:43.380Z,10.80
2018-01-17T02:26:43.342Z,12.90
2018-01-17T02:27:43.371Z,11.40
2018-01-17T02:28:43.404Z,11.70
2018-01-17T02:29:43.430Z,11.50
2018-01-17T02:30:43.472Z,11.60
2018-01-17T02:31:43.492Z,9.00
2018-01-17T02:32:43.520Z,12.50
2018-01-17T02:33:43.548Z,10.50
2018-01-17T02:34:43.584Z,12.50
2018-01-17T02:35:43.606Z,11.20
2018-01-17T02:36:43.637Z,9.20
2018-01-17T02:37:43.664Z,12.90
2018-01-17T02:38:43.706Z,11.40
2018-01-17T02:39:43.724Z,10.90
2018-01-17T02:40:43.753Z,11.30
2018-01-17T02:41:43.782Z,11.70
2018-01-17T02:42:43.814Z,12.80
2018-01-17T02:43:43.842Z,8.50
2018-01-17T02:44:43.872Z,11.10
2018-01-17T02:45:43.903Z,11.50
2018-01-17T02:46:43.932Z,10.40
2018-01-17T02:47:43.977Z,11.60
2018-01-17T02:48:43.988Z,9.30
2018-01-17T02:49:44.165Z,11.40
2018-01-17T02:50:44.053Z,9.80
2018-01-17T02:51:44.078Z,10.80
2018-01-17T02:52:44.122Z,11.00
2018-01-17T02:53:44.143Z,13.70
2018-01-17T02:54:44.166Z,10.50
2018-01-17T02:55:44.199Z,11.90
2018-01-17T02:56:44.290Z,9.60
2018-01-17T02:57:44.255Z,11.00
2018-01-17T02:58:44.283Z,12.40
2018-01-17T02:59:44.316Z,8.30
2018-01-17T03:00:44.345Z,9.00
2018-01-17T03:01:44.376Z,10.50
2018-01-17T03:02:44.407Z,15.70
2018-01-17T03:03:44.434Z,14.00
2018-01-17T03:04:44.472Z,9.00
2018-01-17T03:05:44.490Z,9.40
2018-01-17T03:06:44.524Z,12.30
2018-01-17T03:07:44.556Z,10.20
2018-01-17T03:08:44.907Z,9.10
2018-01-17T03:09:44.610Z,10.80
2018-01-17T03:10:44.641Z,12.70
2018-01-17T03:11:44.672Z,10.00
2018-01-17T03:12:44.700Z,12.70
2018-01-17T03:13:44.728Z,9.30
2018-01-17T03:14:44.758Z,11.50
2018-01-17T03:15:44.792Z,11.70
2018-01-17T03:16:44.872Z,11.30
2018-01-17T03:17:44.846Z,9.30
2018-01-17T03:18:44.875Z,10.50
2018-01-17T03:19:44.905Z,10.70
2018-01-17T03:20:44.936Z,10.80
2018-01-17T03:21:44.965Z,12.30
2018-01-17T03:22:44.996Z,9.40
2018-01-17T03:23:45.027Z,10.30
2018-01-17T03:24:45.053Z,10.10
2018-01-17T03:25:45.187Z,10.00
2018-01-17T03:26:45.112Z,14.20
2018-01-17T03:27:45.142Z,10.30
2018-01-17T03:28:45.169Z,9.90
2018-01-17T03:29:45.200Z,10.00
2018-01-17T03:30:45.231Z,12.20
2018-01-17T03:31:45.262Z,12.30
2018-01-17T03:32:45.303Z,12.90
2018-01-17T03:33:45.321Z,11.50
2018-01-17T03:34:45.350Z,13.60
2018-01-17T03:35:45.380Z,11.10
2018-01-17T03:36:45.409Z,9.50
2018-01-17T03:37:45.437Z,8.80
2018-01-17T03:38:45.468Z,11.10
2018-01-17T03:39:45.498Z,11.70
2018-01-17T03:40:45.529Z,10.30
2018-01-17T03:41:45.609Z,11.90
2018-01-17T03:42:45.589Z,9.80
2018-01-17T03:43:45.620Z,9.80
2018-01-17T03:44:45.647Z,10.70
2018-01-17T03:45:45.723Z,9.20
2018-01-17T03:46:45.704Z,9.70
2018-01-17T03:47:45.735Z,9.40
2018-01-17T03:48:45.762Z,9.50
2018-01-17T03:49:45.859Z,9.10
2018-01-17T03:50:45.824Z,9.30
2018-01-17T03:51:45.853Z,9.30
2018-01-17T03:52:45.881Z,9.70
2018-01-17T03:53:45.909Z,9.00
2018-01-17T03:54:45.940Z,9.80
2018-01-17T03:55:45.970Z,9.60
2018-01-17T03:56:46.006Z,10.10
2018-01-17T03:57:46.030Z,10.10
2018-01-17T03:58:46.059Z,11.70
2018-01-17T03:59:46.091Z,9.60
2018-01-17T04:00:46.120Z,9.70
2018-01-17T04:01:46.165Z,9.20
2018-01-17T04:02:46.176Z,8.90
2018-01-17T04:03:46.207Z,10.00
2018-01-17T04:04:46.234Z,11.10
2018-01-17T04:05:46.266Z,10.60
2018-01-17T04:06:46.296Z,8.20
2018-01-17T04:07:46.324Z,8.70
2018-01-17T04:08:46.384Z,10.80
2018-01-17T04:09:46.382Z,10.70
2018-01-17T04:10:46.414Z,11.90
2018-01-17T04:11:46.446Z,10.00
2018-01-17T04:12:46.474Z,11.60
2018-01-17T04:13:46.503Z,15.00
2018-01-17T04:14:46.533Z,11.10
2018-01-17T04:15:46.561Z,9.30
2018-01-17T04:16:46.593Z,8.00
2018-01-17T04:18:46.654Z,12.40
2018-01-17T04:19:46.683Z,11.30
2018-01-17T04:20:46.710Z,12.20
2018-01-17T04:21:46.738Z,11.00
2018-01-17T04:22:46.767Z,9.90
2018-01-17T04:23:46.796Z,9.90
2018-01-17T04:24:46.825Z,9.70
2018-01-17T04:25:46.964Z,11.40
2018-01-17T04:26:46.886Z,11.30
2018-01-17T04:27:46.927Z,8.70
2018-01-17T04:28:46.944Z,8.10
2018-01-17T04:29:46.974Z,8.70
2018-01-17T04:30:47.004Z,6.50
2018-01-17T04:31:47.035Z,6.40
2018-01-17T04:32:47.065Z,5.90
2018-01-17T04:33:47.091Z,6.60
2018-01-17T04:34:47.119Z,9.00
2018-01-17T04:35:47.149Z,6.30
2018-01-17T04:36:47.182Z,9.20
2018-01-17T04:37:47.207Z,6.00
2018-01-17T04:38:47.245Z,6.10
2018-01-17T04:39:47.265Z,8.20
2018-01-17T04:40:47.296Z,6.70
2018-01-17T04:41:47.324Z,6.70
2018-01-17T04:42:47.380Z,6.00
2018-01-17T04:43:47.385Z,5.00
2018-01-17T04:44:47.414Z,5.20
2018-01-17T04:45:47.440Z,6.10
2018-01-17T04:46:47.475Z,6.00
2018-01-17T04:47:47.514Z,3.10
2018-01-17T04:48:47.534Z,2.20
2018-01-17T04:49:47.557Z,5.70
2018-01-17T04:50:47.588Z,3.60
2018-01-17T04:51:47.624Z,3.40
2018-01-17T04:52:47.649Z,2.90
2018-01-17T04:53:47.677Z,4.10
2018-01-17T04:54:47.709Z,1.80
2018-01-17T04:55:47.753Z,1.80
2018-01-17T04:56:47.774Z,2.40
2018-01-17T04:57:47.796Z,1.60
2018-01-17T04:58:47.829Z,1.20
2018-01-17T04:59:47.860Z,1.30
2018-01-17T05:00:47.885Z,1.90
2018-01-17T05:01:48.018Z,1.60
2018-01-17T05:02:47.942Z,2.30
2018-01-17T05:03:47.973Z,1.70
2018-01-17T05:04:48.001Z,2.10
2018-01-17T05:05:48.032Z,1.90
2018-01-17T05:06:48.060Z,1.00
2018-01-17T05:07:48.090Z,1.10
2018-01-17T05:08:48.119Z,1.10
2018-01-17T05:09:48.148Z,1.10
2018-01-17T05:10:48.176Z,1.40
2018-01-17T05:11:48.209Z,0.90
2018-01-17T05:12:48.234Z,1.20
2018-01-17T05:13:48.266Z,1.90
2018-01-17T05:14:48.302Z,1.60
2018-01-17T05:15:48.327Z,1.50
2018-01-17T05:16:48.351Z,0.90
2018-01-17T05:17:48.381Z,1.70
2018-01-17T05:18:48.420Z,1.80
2018-01-17T05:19:48.439Z,1.40
2018-01-17T05:20:48.470Z,1.20
2018-01-17T05:21:48.500Z,1.10
2018-01-17T05:22:48.531Z,0.90
2018-01-17T05:23:48.556Z,1.30
2018-01-17T05:24:48.593Z,2.00
2018-01-17T05:25:48.681Z,0.80
2018-01-17T05:26:48.643Z,1.80
2018-01-17T05:27:48.672Z,1.00
2018-01-17T05:28:48.703Z,1.40
2018-01-17T05:29:48.738Z,3.30
2018-01-17T05:30:48.772Z,1.50
2018-01-17T05:31:48.790Z,1.80
2018-01-17T05:32:48.829Z,0.90
2018-01-17T05:33:48.855Z,1.80
2018-01-17T05:34:48.882Z,1.10
2018-01-17T05:35:48.913Z,1.00
2018-01-17T05:36:48.935Z,1.10
2018-01-17T05:37:48.971Z,1.20
2018-01-17T05:38:48.995Z,1.90
2018-01-17T05:39:49.023Z,0.70
2018-01-17T05:40:49.053Z,1.10
2018-01-17T05:41:49.082Z,1.00
2018-01-17T05:42:49.114Z,1.70
2018-01-17T05:43:49.156Z,0.80
2018-01-17T05:44:49.167Z,1.30
2018-01-17T05:45:49.197Z,2.60
2018-01-17T05:46:49.229Z,1.40
2018-01-17T05:47:49.258Z,1.00
2018-01-17T05:48:49.293Z,1.00
2018-01-17T05:49:49.331Z,1.00
2018-01-17T05:50:49.343Z,1.60
2018-01-17T05:51:49.391Z,2.30
2018-01-17T05:52:49.403Z,1.60
2018-01-17T05:53:49.436Z,3.60
2018-01-17T05:54:49.466Z,5.40
2018-01-17T05:55:49.517Z,3.70
2018-01-17T05:56:49.520Z,4.70
2018-01-17T05:57:49.546Z,3.80
2018-01-17T05:58:49.580Z,3.50
2018-01-17T05:59:49.608Z,5.50
2018-01-17T06:00:49.638Z,2.50
2018-01-17T06:01:49.738Z,3.60
2018-01-17T06:02:49.694Z,2.20
2018-01-17T06:03:49.725Z,2.40
2018-01-17T06:04:49.754Z,1.90
2018-01-17T06:05:49.784Z,1.80
2018-01-17T06:06:49.816Z,2.60
2018-01-17T06:07:49.841Z,2.40
2018-01-17T06:08:49.886Z,2.80
2018-01-17T06:09:49.909Z,2.30
2018-01-17T06:10:49.928Z,2.00
2018-01-17T06:11:49.959Z,3.40
2018-01-17T06:12:49.985Z,2.50
2018-01-17T06:13:50.016Z,2.20
2018-01-17T06:14:50.046Z,2.40
2018-01-17T06:15:50.080Z,3.30
2018-01-17T06:16:50.104Z,2.20
2018-01-17T06:17:50.137Z,2.40
2018-01-17T06:18:50.261Z,2.90
2018-01-17T06:19:50.193Z,3.90
2018-01-17T06:20:50.222Z,2.70
2018-01-17T06:21:50.251Z,2.00
2018-01-17T06:22:50.285Z,2.50
2018-01-17T06:23:50.365Z,2.60
2018-01-17T06:24:50.339Z,1.60
2018-01-17T06:25:50.691Z,2.10
2018-01-17T06:26:50.398Z,1.60
2018-01-17T06:27:50.429Z,2.50
2018-01-17T06:28:50.459Z,2.10
2018-01-17T06:29:50.487Z,2.30
2018-01-17T06:30:50.517Z,3.40
2018-01-17T06:31:50.546Z,3.20
2018-01-17T06:32:50.570Z,1.80
2018-01-17T06:33:50.603Z,2.30
2018-01-17T06:34:50.632Z,2.60
2018-01-17T06:35:50.660Z,2.60
2018-01-17T06:36:50.694Z,3.60
2018-01-17T06:37:50.750Z,2.70
2018-01-17T06:38:50.748Z,1.80
2018-01-17T06:39:50.779Z,2.00
2018-01-17T06:40:50.808Z,1.90
2018-01-17T06:41:50.838Z,2.10
2018-01-17T06:42:50.869Z,1.10
2018-01-17T06:43:50.893Z,3.50
2018-01-17T06:44:50.932Z,2.50
2018-01-17T06:45:50.954Z,2.60
2018-01-17T06:46:50.984Z,2.40
2018-01-17T06:47:51.015Z,2.80
2018-01-17T06:48:51.042Z,3.60
2018-01-17T06:49:51.069Z,1.70
2018-01-17T06:50:51.100Z,2.60
2018-01-17T06:51:51.131Z,2.20
2018-01-17T06:52:51.160Z,2.80
2018-01-17T06:53:51.190Z,2.00
2018-01-17T06:54:51.237Z,3.30
2018-01-17T06:55:51.244Z,2.20
2018-01-17T06:56:51.280Z,2.20
2018-01-17T06:57:51.304Z,1.20
2018-01-17T06:58:51.333Z,2.40
2018-01-17T06:59:51.363Z,1.80
2018-01-17T07:00:51.391Z,3.20
2018-01-17T07:01:51.419Z,1.80
2018-01-17T07:02:51.451Z,2.10
2018-01-17T07:03:51.482Z,3.20
2018-01-17T07:04:51.512Z,1.40
2018-01-17T07:05:51.538Z,1.90
2018-01-17T07:06:51.572Z,3.20
2018-01-17T07:07:51.623Z,1.10
2018-01-17T07:08:51.629Z,1.40
2018-01-17T07:09:51.654Z,1.80
2018-01-17T07:10:51.687Z,1.50
2018-01-17T07:11:51.764Z,2.50
2018-01-17T07:12:51.742Z,2.00
2018-01-17T07:13:51.773Z,1.60
2018-01-17T07:14:51.814Z,2.60
2018-01-17T07:15:51.832Z,5.80
2018-01-17T07:16:51.862Z,4.50
2018-01-17T07:17:51.888Z,2.70
2018-01-17T07:18:51.940Z,2.00
2018-01-17T07:19:51.946Z,0.80
2018-01-17T07:20:51.975Z,1.60
2018-01-17T07:21:52.007Z,3.50
2018-01-17T07:22:52.036Z,1.70
2018-01-17T07:23:52.316Z,1.40
2018-01-17T07:24:52.094Z,1.60
2018-01-17T07:25:52.123Z,2.80
2018-01-17T07:26:52.154Z,1.40
2018-01-17T07:27:52.184Z,2.40
2018-01-17T07:28:52.209Z,2.30
2018-01-17T07:29:52.240Z,2.50
2018-01-17T07:30:52.336Z,2.70
2018-01-17T07:31:52.297Z,4.10
2018-01-17T07:32:52.325Z,2.80
2018-01-17T07:33:52.359Z,3.10
2018-01-17T07:34:52.385Z,2.30
2018-01-17T07:35:52.414Z,3.90
2018-01-17T07:36:52.444Z,3.40
2018-01-17T07:37:52.474Z,2.60
2018-01-17T07:38:52.506Z,1.70
2018-01-17T07:39:52.533Z,1.90
2018-01-17T07:40:52.557Z,3.10
2018-01-17T07:41:52.589Z,3.90
2018-01-17T07:42:52.617Z,5.20
2018-01-17T07:43:52.654Z,3.00
2018-01-17T07:44:52.676Z,5.60
2018-01-17T07:46:52.737Z,4.60
2018-01-17T07:47:52.968Z,5.00
2018-01-17T07:48:52.799Z,3.40
2018-01-17T07:49:52.843Z,2.70
2018-01-17T07:50:52.859Z,3.90
2018-01-17T07:51:52.903Z,5.50
2018-01-17T07:52:52.915Z,4.80
2018-01-17T07:53:52.949Z,4.40
2018-01-17T07:54:53.086Z,3.70
2018-01-17T07:55:53.016Z,6.00
2018-01-17T07:56:53.033Z,6.80
2018-01-17T07:57:53.057Z,5.10
2018-01-17T07:58:53.088Z,4.90
2018-01-17T07:59:53.122Z,2.90
2018-01-17T08:00:53.145Z,7.30
2018-01-17T08:01:53.172Z,5.50
2018-01-17T08:02:53.408Z,7.50
2018-01-17T08:03:53.231Z,5.00
2018-01-17T08:04:53.518Z,4.90
2018-01-17T08:05:53.292Z,4.80
2018-01-17T08:06:53.316Z,4.20
2018-01-17T08:07:53.348Z,2.70
2018-01-17T08:08:53.374Z,4.10
2018-01-17T08:10:53.438Z,5.70
2018-01-17T08:11:53.784Z,6.30
2018-01-17T08:12:53.491Z,5.70
2018-01-17T08:13:53.522Z,6.80
2018-01-17T08:14:53.552Z,7.20
2018-01-17T08:15:53.580Z,5.20
2018-01-17T08:16:53.611Z,8.20
2018-01-17T08:17:53.639Z,5.60
2018-01-17T08:18:53.736Z,6.30
2018-01-17T08:19:53.754Z,7.90
2018-01-17T08:20:53.732Z,7.20
2018-01-17T08:21:53.825Z,8.00
2018-01-17T08:22:53.798Z,6.90
2018-01-17T08:23:53.900Z,7.50
2018-01-17T08:24:53.841Z,9.20
2018-01-17T08:25:53.892Z,5.10
2018-01-17T08:26:53.904Z,4.40
2018-01-17T08:27:53.930Z,4.80
2018-01-17T08:28:53.960Z,4.90
2018-01-17T08:29:53.999Z,5.30
2018-01-17T08:30:54.028Z,5.80
2018-01-17T08:31:54.108Z,3.40
2018-01-17T08:32:54.079Z,4.80
2018-01-17T08:33:54.106Z,4.30
2018-01-17T08:34:54.135Z,2.70
2018-01-17T08:35:54.165Z,5.80
2018-01-17T08:36:54.422Z,5.70
2018-01-17T08:37:54.223Z,5.40
2018-01-17T08:38:54.255Z,4.70
2018-01-17T08:39:54.605Z,3.10
2018-01-17T08:40:54.317Z,2.50
2018-01-17T08:41:54.340Z,3.60
2018-01-17T08:42:54.373Z,1.90
2018-01-17T08:43:54.403Z,2.80
2018-01-17T08:44:54.433Z,1.20
2018-01-17T08:45:54.472Z,2.70
2018-01-17T08:46:54.492Z,2.00
2018-01-17T08:47:54.519Z,3.40
2018-01-17T08:48:54.548Z,3.60
2018-01-17T08:49:54.576Z,2.70
2018-01-17T08:50:54.616Z,7.80
2018-01-17T08:51:54.636Z,4.30
2018-01-17T08:52:54.664Z,4.80
2018-01-17T08:53:54.695Z,6.30
2018-01-17T08:54:54.738Z,3.30
2018-01-17T08:55:54.781Z,4.40
2018-01-17T08:56:54.784Z,3.80
2018-01-17T08:57:54.859Z,4.20
2018-01-17T08:58:54.858Z,3.80
2018-01-17T08:59:54.875Z,2.60
2018-01-17T09:00:54.905Z,6.10
2018-01-17T09:01:54.935Z,5.00
2018-01-17T09:02:54.966Z,3.70
2018-01-17T09:03:54.992Z,5.30
2018-01-17T09:04:55.342Z,5.20
2018-01-17T09:05:55.054Z,3.70
2018-01-17T09:06:55.081Z,5.90
2018-01-17T09:07:55.110Z,5.20
2018-01-17T09:08:55.146Z,6.30
2018-01-17T09:09:55.169Z,2.40
2018-01-17T09:10:55.197Z,4.60
2018-01-17T09:11:55.245Z,4.40
2018-01-17T09:12:55.265Z,6.50
2018-01-17T09:13:55.306Z,4.90
2018-01-17T09:14:55.317Z,5.40
2018-01-17T09:15:55.348Z,7.20
2018-01-17T09:16:55.439Z,6.30
2018-01-17T09:17:55.410Z,5.10
2018-01-17T09:18:55.437Z,4.70
2018-01-17T09:19:55.525Z,7.10
2018-01-17T09:20:55.555Z,6.50
2018-01-17T09:21:55.541Z,5.90
2018-01-17T09:22:55.552Z,6.50
2018-01-17T09:23:55.590Z,5.90
2018-01-17T09:24:55.628Z,3.10
2018-01-17T09:25:55.643Z,6.90
2018-01-17T09:26:56.290Z,4.50
2018-01-17T09:27:55.700Z,4.50
2018-01-17T09:28:55.738Z,3.80
2018-01-17T09:29:55.760Z,4.90
2018-01-17T09:30:55.791Z,3.70
2018-01-17T09:31:55.898Z,4.40
2018-01-17T09:32:55.848Z,6.40
2018-01-17T09:33:55.913Z,7.10
2018-01-17T09:34:55.909Z,5.40
2018-01-17T09:35:55.947Z,2.80
2018-01-17T09:36:55.971Z,4.20
2018-01-17T09:37:56.006Z,2.90
2018-01-17T09:38:56.028Z,5.70
2018-01-17T09:39:56.059Z,4.60
2018-01-17T09:40:56.089Z,3.80
2018-01-17T09:41:56.123Z,7.00
2018-01-17T09:42:56.352Z,3.30
2018-01-17T09:43:56.180Z,4.40
2018-01-17T09:44:56.211Z,4.80
2018-01-17T09:45:56.240Z,3.40
2018-01-17T09:46:56.268Z,3.30
2018-01-17T09:47:56.301Z,6.70
2018-01-17T09:48:56.336Z,6.30
2018-01-17T09:49:56.363Z,6.40
2018-01-17T09:50:56.393Z,8.00
2018-01-17T09:51:56.430Z,6.70
2018-01-17T09:52:56.451Z,3.70
2018-01-17T09:53:56.484Z,4.70
2018-01-17T09:54:56.511Z,3.50
2018-01-17T09:55:56.597Z,3.30
2018-01-17T09:56:56.571Z,4.80
2018-01-17T09:57:56.655Z,4.30
2018-01-17T09:58:56.632Z,4.80
2018-01-17T09:59:56.655Z,2.60
2018-01-17T10:00:56.687Z,5.70
2018-01-17T10:01:56.719Z,4.50
2018-01-17T10:02:56.771Z,5.90
2018-01-17T10:03:56.783Z,4.80
2018-01-17T10:04:56.808Z,4.20
2018-01-17T10:05:56.838Z,6.60
2018-01-17T10:06:56.866Z,3.80
2018-01-17T10:07:56.897Z,5.80
2018-01-17T10:08:56.928Z,4.70
2018-01-17T10:09:57.376Z,6.80
2018-01-17T10:10:56.987Z,7.20
2018-01-17T10:11:57.019Z,4.30
2018-01-17T10:12:57.047Z,5.40
2018-01-17T10:13:57.077Z,5.50
2018-01-17T10:14:57.328Z,6.60
2018-01-17T10:15:57.142Z,3.80
2018-01-17T10:16:57.169Z,5.10
2018-01-17T10:17:57.197Z,4.40
2018-01-17T10:18:57.241Z,6.20
2018-01-17T10:19:57.362Z,7.00
2018-01-17T10:20:57.296Z,6.30
2018-01-17T10:21:57.324Z,5.70
2018-01-17T10:22:57.361Z,4.90
2018-01-17T10:23:57.390Z,4.30
2018-01-17T10:24:57.410Z,5.60
2018-01-17T10:25:57.448Z,4.40
2018-01-17T10:26:57.531Z,6.20
2018-01-17T10:27:57.512Z,5.60
2018-01-17T10:28:57.539Z,5.50
2018-01-17T10:29:57.584Z,5.40
2018-01-17T10:30:57.598Z,2.50
2018-01-17T10:31:57.624Z,7.10
2018-01-17T10:32:57.677Z,4.80
2018-01-17T10:33:57.685Z,4.90
2018-01-17T10:34:57.716Z,4.50
2018-01-17T10:35:57.746Z,3.80
2018-01-17T10:36:57.777Z,3.20
2018-01-17T10:37:57.806Z,3.30
2018-01-17T10:38:57.838Z,3.40
2018-01-17T10:39:57.870Z,4.30
2018-01-17T10:40:57.902Z,5.30
2018-01-17T10:41:57.928Z,4.60
2018-01-17T10:42:57.959Z,4.90
2018-01-17T10:43:57.988Z,4.40
2018-01-17T10:44:58.018Z,3.10
2018-01-17T10:45:58.047Z,3.90
2018-01-17T10:46:58.081Z,4.40
2018-01-17T10:47:58.112Z,3.60
2018-01-17T10:48:58.196Z,4.10
2018-01-17T10:49:58.173Z,2.90
2018-01-17T10:50:58.206Z,4.10
2018-01-17T10:51:58.231Z,5.90
2018-01-17T10:52:58.357Z,4.70
2018-01-17T10:53:58.293Z,4.40
2018-01-17T10:54:58.335Z,3.70
2018-01-17T10:55:58.680Z,4.40
2018-01-17T10:56:58.383Z,4.10
2018-01-17T10:57:58.413Z,6.30
2018-01-17T10:58:58.447Z,5.70
2018-01-17T10:59:58.474Z,5.10
2018-01-17T11:00:58.510Z,3.30
2018-01-17T11:01:58.541Z,6.30
2018-01-17T11:02:58.628Z,3.60
2018-01-17T11:03:58.599Z,4.00
2018-01-17T11:04:58.630Z,4.40
2018-01-17T11:05:58.659Z,5.60
2018-01-17T11:06:58.689Z,5.30
2018-01-17T11:07:58.719Z,6.60
2018-01-17T11:08:58.749Z,3.80
2018-01-17T11:09:58.781Z,6.20
2018-01-17T11:10:58.816Z,4.60
2018-01-17T11:11:58.839Z,6.60
2018-01-17T11:12:58.881Z,5.10
2018-01-17T11:13:58.904Z,5.80
2018-01-17T11:14:58.931Z,4.60
2018-01-17T11:15:58.965Z,5.10
2018-01-17T11:16:58.996Z,5.10
2018-01-17T11:17:59.037Z,4.30
2018-01-17T11:18:59.065Z,5.00
2018-01-17T11:19:59.142Z,4.00
2018-01-17T11:20:59.121Z,6.80
2018-01-17T11:21:59.150Z,6.70
2018-01-17T11:22:59.180Z,5.60
2018-01-17T11:23:59.211Z,3.90
2018-01-17T11:24:59.255Z,5.10
2018-01-17T11:25:59.273Z,5.10
2018-01-17T11:26:59.374Z,5.70
2018-01-17T11:27:59.337Z,4.60
2018-01-17T11:28:59.366Z,5.50
2018-01-17T11:29:59.415Z,5.60
2018-01-17T11:30:59.431Z,4.00
2018-01-17T11:31:59.458Z,6.20
2018-01-17T11:32:59.502Z,5.00
2018-01-17T11:33:59.521Z,4.80
2018-01-17T11:34:59.552Z,6.10
2018-01-17T11:35:59.582Z,6.60
2018-01-17T11:36:59.613Z,7.10
2018-01-17T11:37:59.645Z,7.20
2018-01-17T11:38:59.732Z,5.60
2018-01-17T11:39:59.733Z,4.20
2018-01-17T11:40:59.737Z,6.40
2018-01-17T11:41:59.768Z,5.90
2018-01-17T11:42:59.799Z,6.90
2018-01-17T11:43:59.838Z,7.50
2018-01-17T11:44:59.863Z,5.70
2018-01-17T11:45:59.982Z,6.10
2018-01-17T11:46:59.924Z,7.50
2018-01-17T11:47:59.956Z,7.40
2018-01-17T11:48:59.982Z,7.20
2018-01-17T11:50:00.028Z,6.20
2018-01-17T11:51:00.047Z,8.70
2018-01-17T11:52:00.074Z,7.20
2018-01-17T11:53:00.116Z,7.20
2018-01-17T11:54:00.136Z,11.00
2018-01-17T11:55:00.168Z,6.40
2018-01-17T11:56:00.205Z,5.90
2018-01-17T11:57:00.228Z,7.90
2018-01-17T11:58:00.258Z,6.80
2018-01-17T11:59:00.288Z,6.70
2018-01-17T12:00:00.320Z,8.90
2018-01-17T12:01:00.371Z,6.20
2018-01-17T12:02:00.384Z,11.00
2018-01-17T12:03:00.515Z,9.50
2018-01-17T12:04:00.446Z,8.10
2018-01-17T12:05:00.475Z,6.90
2018-01-17T12:06:00.506Z,7.60
2018-01-17T12:07:00.536Z,6.40
2018-01-17T12:08:00.565Z,6.80
2018-01-17T12:09:00.595Z,7.30
2018-01-17T12:10:00.625Z,4.30
2018-01-17T12:11:00.656Z,7.00
2018-01-17T12:12:00.689Z,6.90
2018-01-17T12:13:00.718Z,7.80
2018-01-17T12:14:00.748Z,6.60
2018-01-17T12:15:00.779Z,4.60
2018-01-17T12:16:00.812Z,5.10
2018-01-17T12:17:00.856Z,4.90
2018-01-17T12:18:00.874Z,7.20
2018-01-17T12:19:00.902Z,7.00
2018-01-17T12:20:01.262Z,9.70
2018-01-17T12:21:00.966Z,10.40
2018-01-17T12:22:00.999Z,8.30
2018-01-17T12:23:01.033Z,7.70
2018-01-17T12:24:01.059Z,8.30
2018-01-17T12:25:01.088Z,6.20
2018-01-17T12:26:01.175Z,4.70
2018-01-17T12:27:01.150Z,5.80
2018-01-17T12:28:01.181Z,6.30
2018-01-17T12:29:01.214Z,4.00
2018-01-17T12:30:01.243Z,7.00
2018-01-17T12:31:01.271Z,5.70
2018-01-17T12:32:01.353Z,7.80
2018-01-17T12:33:01.332Z,5.30
2018-01-17T12:34:01.370Z,6.50
2018-01-17T12:35:01.398Z,5.50
2018-01-17T12:36:01.424Z,4.30
2018-01-17T12:37:01.458Z,6.30
2018-01-17T12:38:01.488Z,8.30
2018-01-17T12:39:01.628Z,6.00
2018-01-17T12:40:01.549Z,5.90
2018-01-17T12:41:01.579Z,9.90
2018-01-17T12:42:01.608Z,8.40
2018-01-17T12:43:01.641Z,7.40
2018-01-17T12:44:01.671Z,6.20
2018-01-17T12:45:01.699Z,8.40
2018-01-17T12:46:01.729Z,8.70
2018-01-17T12:47:01.764Z,6.30
2018-01-17T12:48:01.792Z,5.20
2018-01-17T12:49:01.829Z,3.90
2018-01-17T12:50:01.852Z,6.60
2018-01-17T12:51:01.885Z,5.70
2018-01-17T12:52:01.915Z,6.00
2018-01-17T12:53:01.946Z,8.60
2018-01-17T12:54:01.976Z,6.50
2018-01-17T12:55:02.020Z,6.30
2018-01-17T12:56:02.063Z,7.20
2018-01-17T12:57:02.066Z,7.10
2018-01-17T12:58:02.109Z,7.30
2018-01-17T12:59:02.131Z,6.30
2018-01-17T13:00:02.161Z,5.70
2018-01-17T13:01:02.199Z,6.20
2018-01-17T13:02:02.280Z,8.80
2018-01-17T13:03:02.251Z,9.80
2018-01-17T13:04:02.282Z,7.30
2018-01-17T13:05:02.319Z,8.00
2018-01-17T13:06:02.345Z,5.80
2018-01-17T13:07:02.372Z,8.40
2018-01-17T13:08:02.405Z,5.70
2018-01-17T13:09:02.436Z,6.70
2018-01-17T13:10:02.465Z,4.80
2018-01-17T13:11:02.501Z,5.70
2018-01-17T13:12:02.526Z,12.40
2018-01-17T13:13:02.555Z,8.90
2018-01-17T13:14:02.590Z,8.00